Time;durP1;ratioP1;P1;durP2;ratioP2;P2;SDS_P1;SDS_P2;PMS_P1;PMS_P2;Temp;Humidity;BMP_temperature;BMP_pressure;BME280_temperature;BME280_humidity;BME280_pressure;Samples;Min_cycle;Max_cycle;Signal;HPM_P1;HPM_P2
2021/06/14 00:02:22;;;;;;;;;;;;;;;27.17;37.58;101083.25;4970408;28;1386;-65
2021/06/14 00:04:49;;;;;;;;;;;;;;;27.14;37.67;101083.53;4970219;28;1324;-65
2021/06/14 00:07:17;;;;;;;;;;;;;;;27.16;38.28;101081.56;4956001;28;1410;-67
2021/06/14 00:09:44;;;;;;;;;;;;;;;27.13;39.20;101074.66;4964036;28;1914;-65
2021/06/14 00:12:13;;;;;;;;;;;;;;;27.16;38.55;101076.19;4974834;28;1320;-66
2021/06/14 00:14:40;;;;;;;;;;;;;;;27.17;38.06;101077.91;4969791;28;1079;-65
2021/06/14 00:17:06;;;;;;;;;;;;;;;27.19;37.90;101075.09;4962806;28;1302;-65
2021/06/14 00:19:33;;;;;;;;;;;;;;;27.19;39.18;101069.72;4959503;28;1341;-65
2021/06/14 00:22:00;;;;;;;;;;;;;;;27.20;39.13;101072.28;4957945;28;1376;-65
2021/06/14 00:24:27;;;;;;;;;;;;;;;27.22;38.89;101069.47;4956891;28;1656;-65
2021/06/14 00:26:54;;;;;;;;;;;;;;;27.23;38.36;101072.03;4959176;28;1332;-66
2021/06/14 00:29:21;;;;;;;;;;;;;;;27.22;39.21;101075.66;4957203;28;1930;-66
2021/06/14 00:31:47;;;;;;;;;;;;;;;27.21;38.87;101068.63;4957174;28;1411;-65
2021/06/14 00:34:14;;;;;;;;;;;;;;;27.23;38.99;101073.84;4968936;28;1375;-65
2021/06/14 00:36:42;;;;;;;;;;;;;;;27.22;38.60;101066.78;4966635;28;1333;-65
2021/06/14 00:39:08;;;;;;;;;;;;;;;27.23;38.55;101065.81;4967453;28;1370;-66
2021/06/14 00:41:35;;;;;;;;;;;;;;;27.21;38.89;101063.25;4973754;28;1316;-64
2021/06/14 00:44:02;;;;;;;;;;;;;;;27.21;38.90;101059.78;4970178;28;1358;-65
2021/06/14 00:46:29;;;;;;;;;;;;;;;27.22;39.36;101064.97;4961471;28;1329;-65
2021/06/14 00:48:56;;;;;;;;;;;;;;;27.23;38.92;101061.31;4959177;28;1974;-65
2021/06/14 00:51:23;;;;;;;;;;;;;;;27.24;39.72;101056.81;4967883;28;1349;-65
2021/06/14 00:53:56;;;;;;;;;;;;;;;27.26;37.80;101055.72;4964304;28;1285;-65
2021/06/14 00:56:24;;;;;;;;;;;;;;;27.26;39.00;101055.72;4972984;28;1124;-65
2021/06/14 00:58:51;;;;;;;;;;;;;;;27.25;39.47;101058.50;4972301;28;1264;-65
2021/06/14 01:01:18;;;;;;;;;;;;;;;27.25;38.80;101050.47;4972961;28;1348;-66
2021/06/14 01:03:45;;;;;;;;;;;;;;;27.26;39.25;101055.72;4963784;28;1321;-65
2021/06/14 01:06:13;;;;;;;;;;;;;;;27.26;39.03;101054.84;4972199;28;1265;-65
2021/06/14 01:08:42;;;;;;;;;;;;;;;27.27;38.38;101060.06;4969802;28;1229;-65
2021/06/14 01:11:28;;;;;;;;;;;;;;;27.31;37.34;101061.50;4951199;28;1992;-65
2021/06/14 01:14:02;;;;;;;;;;;;;;;27.27;38.49;101060.06;4965369;28;1184;-66
2021/06/14 01:16:44;;;;;;;;;;;;;;;27.29;37.39;101063.47;4973919;28;1336;-66
2021/06/14 01:19:31;;;;;;;;;;;;;;;27.32;38.78;101049.81;4973278;28;1257;-66
2021/06/14 01:21:58;;;;;;;;;;;;;;;27.29;39.66;101051.91;4965472;28;1793;-65
2021/06/14 01:24:28;;;;;;;;;;;;;;;27.29;37.77;101055.44;4964111;28;1192;-65
2021/06/14 01:27:00;;;;;;;;;;;;;;;27.29;38.90;101050.09;4972995;28;1398;-66
2021/06/14 01:29:28;;;;;;;;;;;;;;;27.30;37.03;101045.59;4970386;28;1961;-65
2021/06/14 01:31:56;;;;;;;;;;;;;;;27.30;36.96;101049.09;4970792;28;1358;-65
2021/06/14 01:34:26;;;;;;;;;;;;;;;27.28;37.51;101047.53;4974058;28;1290;-65
2021/06/14 01:36:56;;;;;;;;;;;;;;;27.31;37.41;101042.75;4962303;28;1422;-64
2021/06/14 01:39:24;;;;;;;;;;;;;;;27.28;38.38;101048.38;4971367;28;1364;-65
2021/06/14 01:41:52;;;;;;;;;;;;;;;27.27;38.50;101038.66;4972340;28;1407;-65
2021/06/14 01:44:21;;;;;;;;;;;;;;;27.27;38.49;101044.00;4959731;28;1370;-66
2021/06/14 01:46:49;;;;;;;;;;;;;;;27.28;37.76;101042.19;4966459;28;1546;-65
2021/06/14 01:49:16;;;;;;;;;;;;;;;27.28;37.76;101051.06;4969199;28;1918;-65
2021/06/14 01:51:43;;;;;;;;;;;;;;;27.28;37.73;101042.19;4957269;28;1289;-64
2021/06/14 01:54:10;;;;;;;;;;;;;;;27.27;37.93;101041.31;4971567;28;1192;-65
2021/06/14 01:56:41;;;;;;;;;;;;;;;27.28;36.98;101043.03;4961082;28;1249;-64
2021/06/14 01:59:09;;;;;;;;;;;;;;;27.29;36.84;101035.88;4967024;28;1328;-62
2021/06/14 02:01:37;;;;;;;;;;;;;;;27.28;37.13;101043.03;4960927;28;1360;-63
2021/06/14 02:04:04;;;;;;;;;;;;;;;27.29;38.70;101043.88;4962025;28;1362;-64
2021/06/14 02:06:36;;;;;;;;;;;;;;;27.27;38.54;101041.31;4960800;28;1277;-63
2021/06/14 02:09:06;;;;;;;;;;;;;;;27.28;37.33;101040.34;4978572;28;1915;-64
2021/06/14 02:11:34;;;;;;;;;;;;;;;27.27;37.34;101038.66;4974983;28;1284;-65
2021/06/14 02:14:01;;;;;;;;;;;;;;;27.29;36.92;101038.53;4959218;28;1348;-65
2021/06/14 02:16:29;;;;;;;;;;;;;;;27.25;37.82;101039.78;4954653;28;1408;-64
2021/06/14 02:18:56;;;;;;;;;;;;;;;27.24;38.72;101030.91;4962273;28;1380;-64
2021/06/14 02:21:23;;;;;;;;;;;;;;;27.22;42.03;101026.69;4970422;28;1125;-64
2021/06/14 02:23:49;;;;;;;;;;;;;;;27.22;37.84;101018.66;4972884;28;1210;-64
2021/06/14 02:26:16;;;;;;;;;;;;;;;27.20;36.64;101021.47;4967793;28;1325;-63
2021/06/14 02:28:43;;;;;;;;;;;;;;;27.17;38.52;101016.41;4960916;28;1253;-63
2021/06/14 02:31:11;;;;;;;;;;;;;;;27.18;38.41;101020.75;4954469;28;1934;-63
2021/06/14 02:33:38;;;;;;;;;;;;;;;27.16;36.54;101022.72;4962963;28;1373;-63
2021/06/14 02:36:05;;;;;;;;;;;;;;;27.21;36.85;101020.47;4955651;28;1387;-64
2021/06/14 02:38:33;;;;;;;;;;;;;;;27.23;38.54;101023.88;4954551;28;1383;-64
2021/06/14 02:41:01;;;;;;;;;;;;;;;27.20;38.47;101029.50;4966548;28;1321;-63
2021/06/14 02:43:28;;;;;;;;;;;;;;;27.17;37.75;101028.91;4967031;28;1364;-63
2021/06/14 02:45:55;;;;;;;;;;;;;;;27.19;37.06;101030.47;4966263;28;1492;-64
2021/06/14 02:48:22;;;;;;;;;;;;;;;27.20;36.65;101029.50;4965212;28;1308;-64
2021/06/14 02:50:50;;;;;;;;;;;;;;;27.20;40.24;101032.19;4968141;28;1927;-64
2021/06/14 02:53:18;;;;;;;;;;;;;;;27.18;36.79;101025.28;4961461;28;1313;-64
2021/06/14 02:55:49;;;;;;;;;;;;;;;27.18;37.10;101019.94;4966736;28;1328;-64
2021/06/14 02:58:19;;;;;;;;;;;;;;;27.17;37.81;101026.25;4966756;28;1396;-64
2021/06/14 03:00:46;;;;;;;;;;;;;;;27.19;38.20;101025.13;4968429;28;1146;-64
2021/06/14 03:03:13;;;;;;;;;;;;;;;27.18;37.74;101030.63;4965010;28;1288;-64
2021/06/14 03:05:40;;;;;;;;;;;;;;;27.19;38.68;101017.09;4966013;28;1321;-64
2021/06/14 03:08:07;;;;;;;;;;;;;;;27.19;37.19;101022.44;4963199;28;1383;-65
2021/06/14 03:10:34;;;;;;;;;;;;;;;27.16;37.60;101022.72;4972459;28;1980;-65
2021/06/14 03:13:03;;;;;;;;;;;;;;;27.13;37.92;101012.28;4974175;28;1355;-63
2021/06/14 03:15:32;;;;;;;;;;;;;;;27.16;36.94;101020.03;4977993;28;1192;-64
2021/06/14 03:17:59;;;;;;;;;;;;;;;27.15;36.90;101021.88;4967175;28;1276;-64
2021/06/14 03:20:26;;;;;;;;;;;;;;;27.17;37.24;101027.09;4958769;28;1360;-65
2021/06/14 03:22:54;;;;;;;;;;;;;;;27.15;36.91;101021.88;4959268;28;1391;-64
2021/06/14 03:25:20;;;;;;;;;;;;;;;27.15;37.29;101023.69;4970880;28;1347;-65
2021/06/14 03:27:49;;;;;;;;;;;;;;;27.14;38.58;101030.03;4955791;28;1418;-64
2021/06/14 03:30:18;;;;;;;;;;;;;;;27.12;37.62;101026.63;4967804;28;1907;-65
2021/06/14 03:32:45;;;;;;;;;;;;;;;27.08;37.81;101022.56;4958426;28;1380;-65
2021/06/14 03:35:13;;;;;;;;;;;;;;;27.10;37.25;101021.44;4978401;28;1248;-65
2021/06/14 03:37:39;;;;;;;;;;;;;;;27.08;38.13;101023.38;4976013;28;1322;-65
2021/06/14 03:40:08;;;;;;;;;;;;;;;27.11;38.53;101022.28;4972078;28;1249;-65
2021/06/14 03:42:38;;;;;;;;;;;;;;;27.06;37.47;101022.69;4962879;28;1297;-65
2021/06/14 03:45:06;;;;;;;;;;;;;;;27.11;37.62;101022.28;4977315;28;1038;-65
2021/06/14 03:47:33;;;;;;;;;;;;;;;27.11;37.11;101024.97;4975553;28;1458;-65
2021/06/14 03:50:00;;;;;;;;;;;;;;;27.09;36.74;101019.75;4960114;28;1918;-65
2021/06/14 03:52:28;;;;;;;;;;;;;;;27.11;36.93;101020.44;4959443;28;1295;-64
2021/06/14 03:54:54;;;;;;;;;;;;;;;27.10;36.99;101024.13;4960412;28;1312;-65
2021/06/14 03:57:21;;;;;;;;;;;;;;;27.10;37.15;101016.09;4958740;28;1293;-64
2021/06/14 03:59:48;;;;;;;;;;;;;;;27.08;37.13;101022.56;4957483;28;1229;-63
2021/06/14 04:02:14;;;;;;;;;;;;;;;27.06;37.44;101011.97;4960057;28;1240;-64
2021/06/14 04:04:55;;;;;;;;;;;;;;;27.04;37.55;101023.81;4978078;28;1325;-64
2021/06/14 04:07:22;;;;;;;;;;;;;;;27.06;37.38;101021.81;4973383;28;1301;-64
2021/06/14 04:09:49;;;;;;;;;;;;;;;27.03;37.14;101020.28;4966716;28;1911;-64
2021/06/14 04:12:16;;;;;;;;;;;;;;;27.04;37.26;101016.63;4972270;28;1225;-65
2021/06/14 04:14:43;;;;;;;;;;;;;;;27.03;37.04;101014.06;4972854;28;1193;-65
2021/06/14 04:17:10;;;;;;;;;;;;;;;27.05;37.44;101015.63;4976052;28;1296;-64
2021/06/14 04:19:37;;;;;;;;;;;;;;;27.01;37.67;101011.56;4970025;28;1310;-64
2021/06/14 04:22:04;;;;;;;;;;;;;;;27.01;37.37;101011.56;4967066;28;1371;-64
2021/06/14 04:24:31;;;;;;;;;;;;;;;27.03;36.90;101006.06;4969114;28;1272;-64
2021/06/14 04:26:58;;;;;;;;;;;;;;;26.99;37.38;101008.16;4971395;28;1352;-66
2021/06/14 04:29:25;;;;;;;;;;;;;;;27.00;37.91;101011.66;4975759;28;1388;-65
2021/06/14 04:31:51;;;;;;;;;;;;;;;27.03;37.49;101016.75;4980014;28;1906;-65
2021/06/14 04:34:18;;;;;;;;;;;;;;;27.04;38.62;101018.44;4961850;28;1372;-66
2021/06/14 04:36:45;;;;;;;;;;;;;;;26.99;38.30;101010.00;4958496;28;1314;-64
2021/06/14 04:39:12;;;;;;;;;;;;;;;26.96;38.40;101015.63;4970615;28;1239;-63
2021/06/14 04:41:39;;;;;;;;;;;;;;;26.96;37.92;101019.09;4979633;28;1279;-63
2021/06/14 04:44:06;;;;;;;;;;;;;;;27.04;37.65;101019.31;4968753;28;1213;-65
2021/06/14 04:46:33;;;;;;;;;;;;;;;27.05;38.13;101025.50;4969584;28;1652;-68
2021/06/14 04:49:00;;;;;;;;;;;;;;;27.02;38.72;101023.09;4960450;28;1248;-67
2021/06/14 04:51:27;;;;;;;;;;;;;;;27.03;37.62;101020.28;4951487;28;1915;-65
2021/06/14 04:53:54;;;;;;;;;;;;;;;27.04;38.47;101030.00;4953372;28;1296;-67
2021/06/14 04:56:21;;;;;;;;;;;;;;;27.06;38.59;101021.81;4957824;28;1245;-64
2021/06/14 04:58:47;;;;;;;;;;;;;;;27.08;38.13;101023.38;4955505;28;1514;-65
2021/06/14 05:01:14;;;;;;;;;;;;;;;27.05;38.79;101015.63;4970536;28;1327;-67
2021/06/14 05:03:41;;;;;;;;;;;;;;;27.04;38.35;101018.44;4966048;28;1467;-65
2021/06/14 05:06:08;;;;;;;;;;;;;;;27.10;37.95;101023.25;4964631;28;1188;-64
2021/06/14 05:08:34;;;;;;;;;;;;;;;27.08;38.91;101014.53;4962440;28;1266;-66
2021/06/14 05:11:01;;;;;;;;;;;;;;;27.10;38.68;101012.56;4974428;28;1919;-66
2021/06/14 05:13:28;;;;;;;;;;;;;;;27.10;38.29;101009.88;4977545;28;1370;-67
2021/06/14 05:15:55;;;;;;;;;;;;;;;27.11;38.15;101014.28;4972320;28;1206;-64
2021/06/14 05:18:22;;;;;;;;;;;;;;;27.10;38.52;101013.41;4967704;28;1408;-63
2021/06/14 05:20:49;;;;;;;;;;;;;;;27.12;38.92;101011.44;4974351;28;1252;-62
2021/06/14 05:23:15;;;;;;;;;;;;;;;27.11;38.57;101009.75;4973120;28;1367;-63
2021/06/14 05:25:42;;;;;;;;;;;;;;;27.13;38.28;101012.28;4955082;28;1246;-64
2021/06/14 05:28:09;;;;;;;;;;;;;;;27.11;38.04;101000.91;4961593;28;1366;-63
2021/06/14 05:30:36;;;;;;;;;;;;;;;27.17;38.81;101007.53;4975702;28;1915;-63
2021/06/14 05:33:02;;;;;;;;;;;;;;;27.14;38.16;101009.50;4970581;28;1288;-64
2021/06/14 05:35:29;;;;;;;;;;;;;;;27.13;38.73;100996.25;4963804;28;1139;-63
2021/06/14 05:37:56;;;;;;;;;;;;;;;27.17;38.50;101002.19;4962934;28;1292;-69
2021/06/14 05:40:26;;;;;;;;;;;;;;;27.19;38.84;101001.06;4976929;28;1169;-65
2021/06/14 05:42:53;;;;;;;;;;;;;;;27.18;38.93;101002.03;4964103;28;1377;-65
2021/06/14 05:45:19;;;;;;;;;;;;;;;27.22;39.03;101007.97;4970326;28;1325;-64
2021/06/14 05:47:46;;;;;;;;;;;;;;;27.21;39.22;101001.75;4972011;28;1518;-69
2021/06/14 05:50:13;;;;;;;;;;;;;;;27.21;39.64;101011.63;4973776;28;2001;-65
2021/06/14 05:52:40;;;;;;;;;;;;;;;27.20;38.94;101008.09;4956173;28;1681;-63
2021/06/14 05:55:08;;;;;;;;;;;;;;;27.21;40.48;101015.13;4956579;28;1217;-69
2021/06/14 05:57:35;;;;;;;;;;;;;;;27.21;38.72;101008.97;4957467;28;1324;-68
2021/06/14 06:00:04;;;;;;;;;;;;;;;27.21;38.88;101014.31;4972733;28;1158;-70
2021/06/14 06:02:33;;;;;;;;;;;;;;;27.21;40.77;101020.47;4969074;28;1295;-74
2021/06/14 06:05:00;;;;;;;;;;;;;;;27.21;40.67;101020.47;4975897;28;1027;-75
2021/06/14 06:07:28;;;;;;;;;;;;;;;27.21;40.71;101017.81;4975483;28;1316;-75
2021/06/14 06:09:55;;;;;;;;;;;;;;;27.22;40.30;101024.84;4969672;28;1248;-71
2021/06/14 06:12:22;;;;;;;;;;;;;;;27.22;38.89;101014.16;4956449;28;1966;-69
2021/06/14 06:14:50;;;;;;;;;;;;;;;27.23;40.53;101025.72;4956996;28;1122;-72
2021/06/14 06:17:19;;;;;;;;;;;;;;;27.22;40.11;101021.31;4955218;28;1387;-66
2021/06/14 06:19:47;;;;;;;;;;;;;;;27.25;40.44;101029.09;4940784;28;1298;-68
2021/06/14 06:22:15;;;;;;;;;;;;;;;27.25;40.97;101035.28;4941140;28;1352;-68
2021/06/14 06:24:43;;;;;;;;;;;;;;;27.24;41.63;101030.91;4954849;28;1250;-68
2021/06/14 06:27:10;;;;;;;;;;;;;;;27.26;40.24;101033.47;4956661;28;1347;-74
2021/06/14 06:29:37;;;;;;;;;;;;;;;27.25;41.01;101029.94;4961764;28;1123;-69
2021/06/14 06:32:04;;;;;;;;;;;;;;;27.24;40.92;101022.88;4963260;28;1982;-67
2021/06/14 06:34:31;;;;;;;;;;;;;;;27.31;41.47;101032.06;4956950;28;1190;-67
2021/06/14 06:36:58;;;;;;;;;;;;;;;27.33;41.12;101030.09;4970415;28;1460;-71
2021/06/14 06:39:24;;;;;;;;;;;;;;;27.29;41.59;101033.19;4967689;28;1213;-72
2021/06/14 06:41:51;;;;;;;;;;;;;;;27.27;41.54;101038.66;4968365;28;1379;-68
2021/06/14 06:44:19;;;;;;;;;;;;;;;27.27;41.57;101041.31;4962615;28;1252;-68
2021/06/14 06:46:45;;;;;;;;;;;;;;;27.27;41.55;101037.84;4943891;28;1583;-68
2021/06/14 06:49:12;;;;;;;;;;;;;;;27.27;41.67;101048.53;4970087;28;1336;-66
2021/06/14 06:51:39;;;;;;;;;;;;;;;27.31;41.10;101045.44;4974789;28;1963;-71
2021/06/14 06:54:13;;;;;;;;;;;;;;;27.32;41.37;101047.16;4960779;28;1206;-66
2021/06/14 06:56:45;;;;;;;;;;;;;;;27.29;41.84;101055.44;4971548;28;1599;-67
2021/06/14 06:59:12;;;;;;;;;;;;;;;27.29;41.55;101055.44;4964592;28;1337;-67
2021/06/14 07:01:39;;;;;;;;;;;;;;;27.28;41.58;101059.06;4974575;28;1291;-68
2021/06/14 07:04:07;;;;;;;;;;;;;;;27.28;41.53;101059.06;4976355;28;1153;-68
2021/06/14 07:06:34;;;;;;;;;;;;;;;27.28;41.61;101067.09;4965988;28;1293;-67
2021/06/14 07:09:04;;;;;;;;;;;;;;;27.28;41.73;101069.78;4957650;28;1206;-67
2021/06/14 07:11:31;;;;;;;;;;;;;;;27.28;41.83;101075.13;4957736;28;1975;-67
2021/06/14 07:13:59;;;;;;;;;;;;;;;27.29;41.57;101076.84;4959782;28;1289;-67
2021/06/14 07:16:26;;;;;;;;;;;;;;;27.30;41.31;101075.84;4957552;28;1410;-67
2021/06/14 07:18:53;;;;;;;;;;;;;;;27.30;42.63;101083.84;4957601;28;1221;-67
2021/06/14 07:21:20;;;;;;;;;;;;;;;27.30;43.72;101086.53;4958208;28;1273;-67
2021/06/14 07:23:47;;;;;;;;;;;;;;;27.32;43.78;101081.91;4960288;28;1256;-67
2021/06/14 07:26:14;;;;;;;;;;;;;;;27.33;43.89;101088.94;4973964;28;1213;-67
2021/06/14 07:28:42;;;;;;;;;;;;;;;27.36;43.66;101087.84;4967205;28;1224;-67
2021/06/14 07:31:10;;;;;;;;;;;;;;;27.35;44.00;101091.50;5012325;28;1922;-66
2021/06/14 07:33:37;;;;;;;;;;;;;;;27.37;44.90;101086.84;4975756;28;1383;-71
2021/06/14 07:36:05;;;;;;;;;;;;;;;27.38;45.31;101085.88;4966954;28;1206;-72
2021/06/14 07:38:38;;;;;;;;;;;;;;;27.43;43.79;101089.84;4974798;28;1864;-69
2021/06/14 07:41:06;;;;;;;;;;;;;;;27.37;42.86;101092.19;4965650;28;1592;-70
2021/06/14 07:43:33;;;;;;;;;;;;;;;27.37;43.75;101111.78;4963283;28;1343;-71
2021/06/14 07:46:00;;;;;;;;;;;;;;;27.34;43.50;101106.69;4967119;28;1238;-69
2021/06/14 07:48:31;;;;;;;;;;;;;;;27.37;42.92;101108.25;4983504;28;1474;-69
2021/06/14 07:50:58;;;;;;;;;;;;;;;27.44;42.11;101121.00;4967662;28;1911;-69
2021/06/14 07:53:24;;;;;;;;;;;;;;;27.45;42.40;101128.00;4961723;28;1374;-69
2021/06/14 07:55:53;;;;;;;;;;;;;;;27.46;42.03;101129.72;4971882;28;1302;-67
2021/06/14 07:58:20;;;;;;;;;;;;;;;27.49;42.06;101129.44;4966304;28;1424;-69
2021/06/14 08:00:46;;;;;;;;;;;;;;;27.44;41.22;101133.53;4956503;28;1241;-67
2021/06/14 08:03:13;;;;;;;;;;;;;;;27.46;41.40;101139.56;4965762;28;1296;-68
2021/06/14 08:05:40;;;;;;;;;;;;;;;27.45;41.21;101141.38;4961183;28;1213;-68
2021/06/14 08:08:12;;;;;;;;;;;;;;;27.39;42.58;101135.72;4965867;28;1498;-68
2021/06/14 08:10:38;;;;;;;;;;;;;;;27.45;41.44;101145.91;4956914;28;1989;-69
2021/06/14 08:13:06;;;;;;;;;;;;;;;27.47;41.50;101144.81;4964484;28;1378;-68
2021/06/14 08:15:33;;;;;;;;;;;;;;;27.46;40.99;101142.25;4972539;28;1423;-68
2021/06/14 08:20:42;;;;;;;;;;;;;;;27.45;41.42;101141.38;4958493;28;1237;-68
2021/06/14 08:25:54;;;;;;;;;;;;;;;27.50;41.65;101139.19;4952384;28;1252;-68
2021/06/14 08:28:21;;;;;;;;;;;;;;;27.50;41.87;101141.00;4956268;28;1384;-68
2021/06/14 08:30:47;;;;;;;;;;;;;;;27.50;41.83;101136.50;4957649;28;1906;-68
2021/06/14 08:33:14;;;;;;;;;;;;;;;27.50;42.34;101138.31;4958407;28;1284;-67
2021/06/14 08:35:41;;;;;;;;;;;;;;;27.48;42.57;101146.47;4955187;28;1237;-67
2021/06/14 08:38:08;;;;;;;;;;;;;;;27.48;42.44;101143.78;4959169;28;1312;-68
2021/06/14 08:40:35;;;;;;;;;;;;;;;27.46;42.50;101143.09;4957033;28;1288;-69
2021/06/14 08:43:08;;;;;;;;;;;;;;;27.51;42.41;101134.69;4969079;28;1316;-66
2021/06/14 08:45:36;;;;;;;;;;;;;;;27.56;42.21;101138.63;4952466;28;2556;-68
2021/06/14 08:48:05;;;;;;;;;;;;;;;27.56;42.52;101144.00;4975386;28;1648;-69
2021/06/14 08:50:33;;;;;;;;;;;;;;;27.50;42.45;101135.66;4956507;28;1241;-68
2021/06/14 08:53:00;;;;;;;;;;;;;;;27.54;42.77;101143.25;4956528;28;1975;-67
2021/06/14 08:55:27;;;;;;;;;;;;;;;27.55;42.43;101146.78;4967241;28;1106;-67
2021/06/14 08:57:54;;;;;;;;;;;;;;;27.58;42.25;101152.72;4956381;28;1290;-69
2021/06/14 09:00:23;;;;;;;;;;;;;;;27.58;42.36;101147.38;4958016;28;1265;-68
2021/06/14 09:02:50;;;;;;;;;;;;;;;27.58;42.18;101150.03;4954707;28;1328;-65
2021/06/14 09:05:20;;;;;;;;;;;;;;;27.62;42.22;101147.94;4957217;28;1514;-65
2021/06/14 09:07:50;;;;;;;;;;;;;;;27.61;42.40;101152.44;4958900;28;1391;-68
2021/06/14 09:10:38;;;;;;;;;;;;;;;27.58;42.55;101157.22;4955762;28;1217;-67
2021/06/14 09:13:09;;;;;;;;;;;;;;;27.59;42.47;101151.75;4951072;28;1919;-67
2021/06/14 09:15:36;;;;;;;;;;;;;;;27.58;42.52;101152.72;4969657;28;1367;-70
2021/06/14 09:18:13;;;;;;;;;;;;;;;27.60;42.66;101156.09;4971579;28;1387;-67
2021/06/14 09:20:51;;;;;;;;;;;;;;;27.56;42.72;101165.41;4974037;28;1309;-66
2021/06/14 09:23:18;;;;;;;;;;;;;;;27.60;42.39;101163.31;4963819;28;1346;-68
2021/06/14 09:26:00;;;;;;;;;;;;;;;27.68;41.96;101167.00;4954491;28;1357;-66
2021/06/14 09:28:27;;;;;;;;;;;;;;;27.66;42.05;101165.44;4939306;28;1370;-68
2021/06/14 09:30:54;;;;;;;;;;;;;;;27.63;42.61;101165.72;4955381;28;1245;-67
2021/06/14 09:33:22;;;;;;;;;;;;;;;27.60;42.66;101164.13;4940223;28;1981;-66
2021/06/14 09:35:51;;;;;;;;;;;;;;;27.62;42.84;101169.38;4954601;28;1205;-68
2021/06/14 09:38:18;;;;;;;;;;;;;;;27.64;42.49;101162.88;4958915;28;1313;-66
2021/06/14 09:40:48;;;;;;;;;;;;;;;27.67;42.39;101167.97;4972958;28;1272;-65
2021/06/14 09:43:27;;;;;;;;;;;;;;;27.67;42.42;101167.97;4971610;28;1335;-66
2021/06/14 09:45:56;;;;;;;;;;;;;;;27.64;42.49;101176.28;4962694;28;1285;-66
2021/06/14 09:48:27;;;;;;;;;;;;;;;27.67;42.77;101177.81;4956648;28;1598;-66
2021/06/14 09:50:55;;;;;;;;;;;;;;;27.64;42.67;101173.59;4965257;28;1249;-66
2021/06/14 09:53:23;;;;;;;;;;;;;;;27.62;43.00;101175.56;4977005;28;1910;-66
2021/06/14 09:55:51;;;;;;;;;;;;;;;27.63;42.08;101166.53;4961687;28;1142;-66
2021/06/14 09:58:25;;;;;;;;;;;;;;;27.62;42.68;101172.03;4954715;28;1296;-65
2021/06/14 10:00:52;;;;;;;;;;;;;;;27.61;42.72;101179.22;4961323;28;1580;-66
2021/06/14 10:03:19;;;;;;;;;;;;;;;27.66;43.10;101168.13;4941279;28;1406;-65
2021/06/14 10:05:50;;;;;;;;;;;;;;;27.66;43.08;101171.63;4956456;28;1218;-67
2021/06/14 10:08:25;;;;;;;;;;;;;;;27.69;42.69;101167.84;4953186;28;1288;-68
2021/06/14 10:11:03;;;;;;;;;;;;;;;27.67;42.69;101162.63;4969493;28;1372;-66
2021/06/14 10:13:30;;;;;;;;;;;;;;;27.68;42.69;101166.16;4954978;28;1983;-68
2021/06/14 10:16:05;;;;;;;;;;;;;;;27.72;41.58;101169.41;4956305;28;1275;-68
2021/06/14 10:18:34;;;;;;;;;;;;;;;27.73;42.00;101171.94;4957010;28;1289;-67
2021/06/14 10:21:03;;;;;;;;;;;;;;;27.75;41.75;101161.97;4955712;28;1079;-68
2021/06/14 10:23:30;;;;;;;;;;;;;;;27.68;42.13;101167.00;4940396;28;1258;-66
2021/06/14 10:25:59;;;;;;;;;;;;;;;27.62;41.93;101170.22;4954998;28;1316;-68
2021/06/14 10:28:27;;;;;;;;;;;;;;;27.61;41.65;101176.53;4956571;28;1382;-67
2021/06/14 10:30:55;;;;;;;;;;;;;;;27.70;41.89;101172.19;4955893;28;1285;-65
2021/06/14 10:33:23;;;;;;;;;;;;;;;27.69;41.59;101173.19;4954251;28;1973;-67
2021/06/14 10:35:52;;;;;;;;;;;;;;;27.69;41.59;101173.19;4956056;28;1633;-66
2021/06/14 10:38:21;;;;;;;;;;;;;;;27.65;41.82;101172.63;4971169;28;1429;-66
2021/06/14 10:40:49;;;;;;;;;;;;;;;27.64;41.64;101168.25;4962291;28;1242;-66
2021/06/14 10:43:16;;;;;;;;;;;;;;;27.64;41.44;101165.56;4978057;28;1319;-66
2021/06/14 10:45:42;;;;;;;;;;;;;;;27.64;42.14;101162.88;4967751;28;1429;-66
2021/06/14 10:48:11;;;;;;;;;;;;;;;27.61;41.65;101160.47;4961937;28;1692;-67
2021/06/14 10:50:58;;;;;;;;;;;;;;;27.65;41.40;101153.88;4972061;28;1256;-66
2021/06/14 10:53:32;;;;;;;;;;;;;;;27.66;41.61;101155.56;4975632;28;1969;-68
2021/06/14 10:56:01;;;;;;;;;;;;;;;27.65;41.71;101159.25;4973652;28;1067;-66
2021/06/14 10:58:31;;;;;;;;;;;;;;;27.66;41.05;101144.84;4969818;28;1276;-66
2021/06/14 11:01:01;;;;;;;;;;;;;;;27.71;41.57;101148.97;4963143;28;1221;-65
2021/06/14 11:03:38;;;;;;;;;;;;;;;27.68;41.65;101148.25;4960717;28;1386;-67
2021/06/14 11:06:21;;;;;;;;;;;;;;;27.66;41.81;101142.19;4974953;28;1190;-65
2021/06/14 11:09:02;;;;;;;;;;;;;;;27.67;41.11;101141.22;4966581;28;1272;-66
2021/06/14 11:11:31;;;;;;;;;;;;;;;27.71;40.82;101140.94;4965475;28;1999;-66
2021/06/14 11:14:00;;;;;;;;;;;;;;;27.70;41.05;101137.41;4968478;28;1240;-65
2021/06/14 11:16:35;;;;;;;;;;;;;;;27.70;41.01;101145.44;4976492;28;1284;-66
2021/06/14 11:19:03;;;;;;;;;;;;;;;27.79;40.63;101135.72;4954009;28;1234;-64
2021/06/14 11:21:31;;;;;;;;;;;;;;;27.81;40.91;101141.81;4958220;28;1737;-73
2021/06/14 11:24:09;;;;;;;;;;;;;;;27.80;41.13;101138.28;4984006;28;1410;-72
2021/06/14 11:26:36;;;;;;;;;;;;;;;27.80;41.54;101140.13;4980134;28;1323;-71
2021/06/14 11:29:12;;;;;;;;;;;;;;;27.80;41.82;101135.63;4984157;28;1489;-72
2021/06/14 11:31:39;;;;;;;;;;;;;;;27.87;40.64;101135.91;4989999;28;1989;-72
2021/06/14 11:34:16;;;;;;;;;;;;;;;27.84;41.19;101131.69;4979197;28;1196;-73
2021/06/14 11:36:51;;;;;;;;;;;;;;;27.80;41.66;101132.09;4973817;28;1371;-73
2021/06/14 11:39:20;;;;;;;;;;;;;;;27.80;41.68;101130.25;4961330;28;1238;-76
2021/06/14 11:41:47;;;;;;;;;;;;;;;27.87;41.26;101127.88;4955397;28;1349;-73
2021/06/14 11:44:30;;;;;;;;;;;;;;;27.87;41.22;101130.56;4957358;28;1306;-73
2021/06/14 11:47:00;;;;;;;;;;;;;;;27.85;41.63;101127.16;4961948;28;1489;-74
2021/06/14 11:49:37;;;;;;;;;;;;;;;27.89;43.01;101120.56;4958541;28;1277;-70
2021/06/14 11:52:16;;;;;;;;;;;;;;;27.87;41.78;101119.84;4977177;28;1902;-74
2021/06/14 11:54:44;;;;;;;;;;;;;;;27.92;41.69;101117.59;4970051;28;1186;-67
2021/06/14 11:57:11;;;;;;;;;;;;;;;27.90;41.53;101114.22;4963449;28;1307;-68
2021/06/14 11:59:38;;;;;;;;;;;;;;;27.86;42.64;101113.66;4963470;28;1234;-68
2021/06/14 12:02:17;;;;;;;;;;;;;;;27.87;43.43;101111.81;4969617;28;1300;-67
2021/06/14 12:04:44;;;;;;;;;;;;;;;27.82;43.04;101100.66;4975816;28;1283;-70
2021/06/14 12:07:10;;;;;;;;;;;;;;;27.86;44.07;101104.78;4972650;28;1300;-67
2021/06/14 12:09:40;;;;;;;;;;;;;;;27.86;44.28;101102.09;4985591;28;1257;-81
2021/06/14 12:12:07;;;;;;;;;;;;;;;27.76;42.66;101103.88;4956360;28;1911;-68
2021/06/14 12:14:34;;;;;;;;;;;;;;;27.65;43.03;101104.88;4962351;28;1535;-64
2021/06/14 12:17:03;;;;;;;;;;;;;;;27.55;42.76;101098.63;4978263;28;1390;-69
2021/06/14 12:19:38;;;;;;;;;;;;;;;27.44;42.01;101096.91;4966608;28;1126;-66
2021/06/14 12:22:26;;;;;;;;;;;;;;;27.41;42.25;101086.44;4968739;28;1362;-65
2021/06/14 12:24:53;;;;;;;;;;;;;;;27.36;41.40;101083.31;4956251;28;1225;-65
2021/06/14 12:27:20;;;;;;;;;;;;;;;27.34;41.50;101079.94;4938202;28;1778;-63
2021/06/14 12:29:59;;;;;;;;;;;;;;;27.24;41.79;101073.69;4950673;28;1269;-64
2021/06/14 12:32:37;;;;;;;;;;;;;;;27.27;41.96;101064.59;4947334;28;1934;-66
2021/06/14 12:35:10;;;;;;;;;;;;;;;27.26;41.84;101062.88;4954189;28;1348;-67
2021/06/14 12:38:05;;;;;;;;;;;;;;;27.21;41.60;101060.59;4959207;28;1731;-67
2021/06/14 12:40:46;;;;;;;;;;;;;;;27.18;41.64;101060.88;4969758;28;1329;-66
2021/06/14 12:43:15;;;;;;;;;;;;;;;27.18;41.67;101057.38;4964630;28;1683;-66
2021/06/14 12:46:01;;;;;;;;;;;;;;;27.14;42.11;101048.75;4963172;28;1615;-64
2021/06/14 12:48:50;;;;;;;;;;;;;;;27.10;42.19;101040.16;4952411;28;1720;-63
2021/06/14 12:51:19;;;;;;;;;;;;;;;27.06;41.95;101048.56;4940092;28;1553;-66
2021/06/14 12:53:54;;;;;;;;;;;;;;;27.13;42.12;101044.38;4960565;28;1914;-64
2021/06/14 12:56:23;;;;;;;;;;;;;;;27.12;42.15;101040.00;4967668;28;1294;-67
2021/06/14 12:58:50;;;;;;;;;;;;;;;27.08;42.24;101031.41;4962621;28;1338;-66
2021/06/14 13:01:20;;;;;;;;;;;;;;;27.03;41.82;101035.47;4968292;28;1308;-66
2021/06/14 13:03:48;;;;;;;;;;;;;;;26.98;42.21;101033.22;4947262;28;1552;-66